Time;durP1;ratioP1;P1;durP2;ratioP2;P2;SDS_P1;SDS_P2;PMS_P1;PMS_P2;Temp;Humidity;BMP_temperature;BMP_pressure;BME280_temperature;BME280_humidity;BME280_pressure;Samples;Min_cycle;Max_cycle;Signal;HPM_P1;HPM_P2
2023/04/11 00:02:11;;;;;;;8.05;7.13;;;15.70;27.30;;;;;;5031841;28;20177;-53
2023/04/11 00:04:37;;;;;;;8.13;7.33;;;15.70;27.20;;;;;;5031889;28;20206;-50
2023/04/11 00:07:04;;;;;;;8.30;7.45;;;15.60;27.20;;;;;;5031966;28;20664;-53
2023/04/11 00:09:30;;;;;;;7.88;6.78;;;15.70;27.30;;;;;;5031913;28;20662;-50
2023/04/11 00:11:56;;;;;;;9.87;8.20;;;15.70;27.20;;;;;;5031822;28;20167;-53
2023/04/11 00:14:22;;;;;;;6.85;6.20;;;15.70;27.20;;;;;;5031925;28;20432;-53
2023/04/11 00:16:52;;;;;;;7.97;6.57;;;15.70;27.10;;;;;;5031710;28;20306;-51
2023/04/11 00:19:22;;;;;;;9.82;7.72;;;15.70;27.10;;;;;;5032151;28;20429;-53
2023/04/11 00:21:48;;;;;;;9.93;7.82;;;15.80;27.10;;;;;;5031701;28;20185;-54
2023/04/11 00:24:14;;;;;;;7.72;6.68;;;15.70;27.20;;;;;;5031789;28;20212;-54
2023/04/11 00:26:40;;;;;;;8.83;7.93;;;15.70;27.30;;;;;;5031813;28;20198;-54
2023/04/11 00:29:06;;;;;;;10.10;7.20;;;15.70;27.40;;;;;;5031780;28;20428;-54
2023/04/11 00:31:31;;;;;;;7.37;6.60;;;15.70;27.30;;;;;;5031690;28;20177;-52
2023/04/11 00:33:57;;;;;;;9.00;8.10;;;15.70;27.30;;;;;;5031778;28;20232;-54
2023/04/11 00:36:23;;;;;;;9.07;7.50;;;15.70;27.40;;;;;;5031644;28;20673;-54
2023/04/11 00:38:48;;;;;;;8.80;7.90;;;15.70;27.50;;;;;;5031711;28;20506;-55
2023/04/11 00:41:14;;;;;;;7.90;7.07;;;15.70;27.50;;;;;;5031776;28;20202;-55
2023/04/11 00:43:40;;;;;;;7.60;6.90;;;15.70;27.60;;;;;;5031295;28;20297;-55
2023/04/11 00:46:08;;;;;;;10.77;6.60;;;15.70;27.70;;;;;;5031580;28;20426;-54
2023/04/11 00:48:34;;;;;;;8.15;6.40;;;15.70;27.80;;;;;;5031574;28;20654;-54
2023/04/11 00:51:00;;;;;;;8.68;7.65;;;15.70;27.70;;;;;;5031636;28;20688;-55
2023/04/11 00:53:31;;;;;;;10.95;7.57;;;15.60;27.50;;;;;;5031299;28;20524;-55
2023/04/11 00:56:00;;;;;;;8.57;7.60;;;15.60;27.50;;;;;;5031558;28;20279;-55
2023/04/11 00:58:27;;;;;;;8.57;6.85;;;15.60;27.60;;;;;;5031680;28;20174;-54
2023/04/11 01:00:53;;;;;;;9.00;7.50;;;15.60;27.70;;;;;;5031784;28;20189;-54
2023/04/11 01:03:20;;;;;;;7.18;6.47;;;15.60;27.70;;;;;;5031521;28;20206;-54
2023/04/11 01:05:47;;;;;;;6.80;6.20;;;15.60;27.70;;;;;;5032442;28;20205;-54
2023/04/11 01:08:13;;;;;;;9.07;7.35;;;15.60;27.60;;;;;;5035019;28;20196;-55
2023/04/11 01:10:41;;;;;;;7.57;6.63;;;15.60;27.70;;;;;;5035111;28;20201;-54
2023/04/11 01:13:07;;;;;;;8.68;6.65;;;15.60;27.70;;;;;;5034820;28;20170;-54
2023/04/11 01:15:33;;;;;;;6.38;5.55;;;15.60;27.60;;;;;;5034980;28;20292;-54
2023/04/11 01:18:00;;;;;;;9.53;6.27;;;15.60;27.50;;;;;;5035025;28;20597;-54
2023/04/11 01:20:27;;;;;;;8.93;7.43;;;15.60;27.60;;;;;;5034997;28;20174;-54
2023/04/11 01:22:56;;;;;;;8.73;7.22;;;15.60;27.60;;;;;;5034531;28;20170;-54
2023/04/11 01:25:22;;;;;;;8.65;7.50;;;15.60;27.50;;;;;;5034597;28;20192;-54
2023/04/11 01:27:47;;;;;;;7.53;6.72;;;15.60;27.50;;;;;;5034710;28;20212;-54
2023/04/11 01:30:14;;;;;;;6.87;5.70;;;15.70;27.60;;;;;;5034748;28;20227;-55
2023/04/11 01:32:39;;;;;;;8.88;7.40;;;15.70;27.50;;;;;;5034558;28;20243;-54
2023/04/11 01:35:07;;;;;;;8.67;7.80;;;15.70;27.60;;;;;;5034596;28;20646;-54
2023/04/11 01:37:33;;;;;;;9.95;7.53;;;15.70;27.50;;;;;;5034400;28;20190;-52
2023/04/11 01:40:00;;;;;;;8.95;7.55;;;15.70;27.30;;;;;;5034412;28;20206;-54
2023/04/11 01:42:28;;;;;;;10.48;7.97;;;15.70;27.60;;;;;;5034395;28;20571;-54
2023/04/11 01:44:55;;;;;;;9.10;7.40;;;15.70;27.80;;;;;;5034603;28;20201;-54
2023/04/11 01:47:21;;;;;;;8.30;7.40;;;15.60;27.70;;;;;;5034188;28;20539;-54
2023/04/11 01:49:48;;;;;;;10.25;7.70;;;15.60;27.80;;;;;;5034413;28;20194;-53
2023/04/11 01:52:14;;;;;;;8.95;7.30;;;15.50;27.80;;;;;;5034041;28;20181;-52
2023/04/11 01:54:39;;;;;;;7.47;6.33;;;15.50;27.90;;;;;;5034194;28;20182;-52
2023/04/11 01:57:05;;;;;;;7.97;7.00;;;15.50;28.10;;;;;;5034327;28;20800;-52
2023/04/11 01:59:31;;;;;;;10.98;7.82;;;15.40;28.20;;;;;;5034187;28;20217;-52
2023/04/11 02:01:57;;;;;;;9.07;7.80;;;15.30;28.60;;;;;;5033945;28;20178;-52
2023/04/11 02:04:23;;;;;;;8.07;6.70;;;15.20;28.60;;;;;;5033955;28;20444;-52
2023/04/11 02:06:48;;;;;;;8.80;7.67;;;15.20;28.70;;;;;;5033939;28;20190;-51
2023/04/11 02:09:15;;;;;;;11.03;8.10;;;15.20;28.70;;;;;;5033844;28;20654;-52
2023/04/11 02:11:41;;;;;;;8.70;7.30;;;15.20;28.70;;;;;;5033748;28;20178;-52
2023/04/11 02:14:08;;;;;;;9.20;7.57;;;15.20;28.80;;;;;;5033893;28;20182;-52
2023/04/11 02:16:51;;;;;;;8.15;7.07;;;15.10;28.90;;;;;;5033754;28;20292;-52
2023/04/11 02:19:19;;;;;;;7.70;6.47;;;15.20;28.90;;;;;;5033531;28;20181;-52
2023/04/11 02:21:45;;;;;;;8.40;6.40;;;15.20;28.90;;;;;;5033424;28;20178;-52
2023/04/11 02:24:11;;;;;;;10.07;7.00;;;15.20;28.90;;;;;;5033558;28;20206;-52
2023/04/11 02:26:37;;;;;;;8.77;7.20;;;15.10;29.00;;;;;;5033828;28;20190;-52
2023/04/11 02:29:02;;;;;;;8.77;6.60;;;15.10;28.90;;;;;;5033742;28;20178;-52
2023/04/11 02:31:28;;;;;;;8.10;6.20;;;15.10;29.00;;;;;;5033558;28;20219;-52
2023/04/11 02:33:54;;;;;;;7.53;6.73;;;15.10;29.00;;;;;;5033350;28;20529;-52
2023/04/11 02:36:20;;;;;;;10.23;8.00;;;15.10;29.00;;;;;;5033422;28;20197;-52
2023/04/11 02:38:45;;;;;;;8.40;7.40;;;15.10;29.60;;;;;;5033383;28;20170;-52
2023/04/11 02:41:11;;;;;;;6.63;5.30;;;15.20;28.70;;;;;;5033335;28;20201;-52
2023/04/11 02:43:37;;;;;;;8.77;6.67;;;15.20;28.50;;;;;;5033197;28;20194;-52
2023/04/11 02:46:03;;;;;;;10.00;7.53;;;15.20;28.60;;;;;;5033328;28;20193;-52
2023/04/11 02:48:28;;;;;;;8.33;6.33;;;15.30;28.80;;;;;;5033258;28;20174;-52
2023/04/11 02:50:54;;;;;;;6.90;6.20;;;15.30;28.70;;;;;;5033040;28;20415;-52
2023/04/11 02:53:20;;;;;;;9.03;6.70;;;15.30;28.50;;;;;;5033219;28;20228;-52
2023/04/11 02:55:46;;;;;;;6.30;5.70;;;15.30;28.50;;;;;;5033291;28;20435;-52
2023/04/11 02:58:16;;;;;;;8.73;7.13;;;15.40;28.50;;;;;;5033095;28;20922;-53
2023/04/11 03:00:48;;;;;;;8.88;6.18;;;15.40;28.40;;;;;;5033265;28;20166;-52
2023/04/11 03:03:14;;;;;;;8.82;7.35;;;15.40;28.10;;;;;;5032630;28;20679;-53
2023/04/11 03:05:39;;;;;;;8.50;7.50;;;15.40;28.10;;;;;;5032766;28;20207;-50
2023/04/11 03:08:07;;;;;;;8.30;6.97;;;15.40;28.10;;;;;;5033123;28;20182;-53
2023/04/11 03:10:33;;;;;;;10.50;6.32;;;15.40;28.00;;;;;;5032849;28;20178;-53
2023/04/11 03:12:59;;;;;;;7.30;6.40;;;15.50;28.20;;;;;;5032842;28;20181;-50
2023/04/11 03:15:25;;;;;;;9.10;7.17;;;15.50;28.20;;;;;;5032741;28;20174;-53
2023/04/11 03:17:51;;;;;;;12.25;7.57;;;15.50;27.80;;;;;;5032895;28;20166;-50
2023/04/11 03:20:19;;;;;;;11.47;5.93;;;15.50;27.70;;;;;;5032611;28;20940;-53
2023/04/11 03:22:45;;;;;;;10.80;6.30;;;15.50;27.60;;;;;;5032342;28;20688;-53
2023/04/11 03:25:11;;;;;;;8.52;6.80;;;15.60;27.30;;;;;;5032756;28;20550;-50
2023/04/11 03:27:36;;;;;;;11.23;5.80;;;15.60;27.40;;;;;;5032777;28;20205;-50
2023/04/11 03:30:03;;;;;;;9.37;7.23;;;15.60;27.40;;;;;;5031573;28;20173;-53
2023/04/11 03:32:29;;;;;;;7.05;6.28;;;15.60;27.40;;;;;;5032160;28;20184;-53
2023/04/11 03:34:56;;;;;;;9.05;6.18;;;15.50;27.50;;;;;;5032568;28;20181;-50
2023/04/11 03:37:21;;;;;;;8.00;6.13;;;15.50;27.70;;;;;;5032364;28;20199;-52
2023/04/11 03:39:47;;;;;;;6.90;6.20;;;15.50;27.70;;;;;;5032469;28;20174;-52
2023/04/11 03:42:13;;;;;;;7.77;6.70;;;15.50;27.70;;;;;;5032369;28;20170;-52
2023/04/11 03:44:39;;;;;;;8.73;7.20;;;15.50;27.50;;;;;;5032206;28;20197;-52
2023/04/11 03:47:04;;;;;;;7.50;6.70;;;15.50;27.70;;;;;;5032078;28;20186;-52
2023/04/11 03:49:30;;;;;;;6.73;5.70;;;15.50;27.70;;;;;;5032155;28;20177;-52
2023/04/11 03:51:56;;;;;;;9.20;6.80;;;15.50;27.70;;;;;;5032163;28;20166;-52
2023/04/11 03:54:21;;;;;;;7.00;6.03;;;15.50;27.70;;;;;;5032252;28;20537;-52
2023/04/11 03:56:47;;;;;;;6.73;6.03;;;15.40;27.80;;;;;;5032043;28;20685;-52
2023/04/11 03:59:13;;;;;;;8.53;5.40;;;15.40;28.00;;;;;;5032138;28;20181;-52
2023/04/11 04:01:39;;;;;;;7.80;6.57;;;15.30;28.00;;;;;;5031938;28;20201;-52
2023/04/11 04:04:06;;;;;;;8.13;7.30;;;15.30;28.20;;;;;;5031745;28;20531;-52
2023/04/11 04:06:31;;;;;;;8.98;6.63;;;15.30;28.30;;;;;;5032101;28;20213;-52
2023/04/11 04:08:58;;;;;;;11.47;7.43;;;15.30;28.30;;;;;;5032129;28;20730;-52
2023/04/11 04:11:24;;;;;;;9.98;7.82;;;15.20;28.50;;;;;;5032022;28;20197;-52
2023/04/11 04:13:50;;;;;;;8.80;7.28;;;15.30;28.70;;;;;;5031738;28;20182;-52
2023/04/11 04:16:16;;;;;;;8.50;6.30;;;15.30;28.90;;;;;;5031806;28;20217;-52
2023/04/11 04:18:42;;;;;;;8.68;7.28;;;15.20;29.10;;;;;;5031750;28;20709;-52
2023/04/11 04:21:07;;;;;;;10.57;7.70;;;15.30;29.40;;;;;;5032110;28;20216;-52
2023/04/11 04:23:35;;;;;;;10.07;7.97;;;15.30;29.60;;;;;;5031594;28;21034;-52
2023/04/11 04:26:01;;;;;;;11.55;9.43;;;15.20;29.60;;;;;;5031663;28;20198;-52
2023/04/11 04:28:27;;;;;;;10.40;8.35;;;15.30;29.60;;;;;;5031881;28;20193;-52
2023/04/11 04:30:56;;;;;;;14.40;7.97;;;15.30;29.70;;;;;;5031699;28;20170;-52
2023/04/11 04:33:23;;;;;;;9.57;7.82;;;15.20;29.70;;;;;;5031672;28;20189;-52
2023/04/11 04:35:56;;;;;;;8.90;8.02;;;15.20;29.90;;;;;;5031915;28;20308;-52
2023/04/11 04:38:27;;;;;;;12.10;8.80;;;15.20;30.10;;;;;;5032018;28;20581;-52
2023/04/11 04:40:53;;;;;;;10.73;9.20;;;15.20;30.10;;;;;;5033185;28;20159;-52
2023/04/11 04:43:22;;;;;;;11.38;8.60;;;15.20;30.30;;;;;;5035379;28;20229;-52
2023/04/11 04:45:48;;;;;;;9.18;7.90;;;15.20;30.60;;;;;;5035479;28;20672;-52
2023/04/11 04:48:16;;;;;;;10.30;8.50;;;15.10;30.60;;;;;;5035708;28;20182;-52
2023/04/11 04:50:42;;;;;;;9.63;8.60;;;15.20;31.00;;;;;;5035496;28;20400;-52
2023/04/11 04:53:08;;;;;;;9.38;8.30;;;15.10;31.40;;;;;;5035126;28;20185;-52
2023/04/11 04:55:34;;;;;;;9.27;8.38;;;15.00;31.60;;;;;;5035535;28;20197;-52
2023/04/11 04:58:00;;;;;;;12.55;9.45;;;15.00;31.70;;;;;;5035206;28;20186;-52
2023/04/11 05:00:25;;;;;;;9.90;8.60;;;15.00;31.60;;;;;;5035250;28;20170;-52
2023/04/11 05:02:53;;;;;;;11.47;9.87;;;15.00;31.90;;;;;;5035131;28;20166;-52
2023/04/11 05:05:19;;;;;;;13.93;8.98;;;15.00;32.60;;;;;;5035302;28;20593;-53
2023/04/11 05:07:45;;;;;;;16.40;10.27;;;15.10;33.40;;;;;;5035425;28;20192;-52
2023/04/11 05:10:11;;;;;;;13.80;9.40;;;15.00;34.60;;;;;;5035128;28;20174;-52
2023/04/11 05:12:36;;;;;;;13.73;10.30;;;15.00;34.50;;;;;;5034799;28;20590;-52
2023/04/11 05:15:03;;;;;;;12.10;9.10;;;15.00;34.90;;;;;;5035223;28;20189;-52
2023/04/11 05:17:28;;;;;;;11.38;10.18;;;15.00;35.20;;;;;;5034782;28;20624;-52
2023/04/11 05:19:55;;;;;;;11.30;9.20;;;15.00;35.20;;;;;;5048721;22;20238;-50
2023/04/11 05:22:20;;;;;;;11.82;8.90;;;14.90;35.20;;;;;;5034084;28;20174;-50
2023/04/11 05:24:47;;;;;;;11.33;9.53;;;14.90;35.00;;;;;;5034780;28;20221;-53
2023/04/11 05:27:12;;;;;;;11.75;10.27;;;14.80;35.10;;;;;;5034706;28;20272;-51
2023/04/11 05:29:38;;;;;;;15.17;10.87;;;14.80;35.40;;;;;;5034619;28;20190;-50
2023/04/11 05:32:04;;;;;;;11.50;8.55;;;14.70;35.90;;;;;;5034381;28;20224;-50
2023/04/11 05:34:32;;;;;;;12.33;8.70;;;14.60;35.70;;;;;;5034630;28;20174;-51
2023/04/11 05:36:57;;;;;;;12.40;8.80;;;14.50;35.90;;;;;;5034567;28;20166;-50
2023/04/11 05:39:23;;;;;;;10.23;8.30;;;14.60;36.20;;;;;;5034506;28;20194;-50
2023/04/11 05:41:49;;;;;;;11.97;9.40;;;14.60;36.10;;;;;;5034275;28;20534;-50
2023/04/11 05:44:15;;;;;;;11.25;8.68;;;14.50;36.30;;;;;;5034381;28;20197;-50
2023/04/11 05:46:41;;;;;;;10.70;8.07;;;14.40;36.20;;;;;;5034355;28;20687;-53
2023/04/11 05:49:06;;;;;;;9.03;8.07;;;14.40;36.70;;;;;;5034325;28;20589;-51
2023/04/11 05:51:32;;;;;;;10.40;8.40;;;14.30;37.00;;;;;;5033885;28;20245;-52
2023/04/11 05:53:58;;;;;;;10.57;8.40;;;14.30;37.10;;;;;;5033210;28;20174;-52
2023/04/11 05:56:23;;;;;;;10.97;9.00;;;15.00;37.30;;;;;;5034213;28;20176;-50
2023/04/11 05:58:49;;;;;;;10.37;7.83;;;14.20;37.60;;;;;;5034187;28;20658;-50
2023/04/11 06:01:17;;;;;;;9.80;8.57;;;14.20;37.30;;;;;;5034410;28;20629;-53
2023/04/11 06:03:44;;;;;;;12.57;8.75;;;14.20;37.90;;;;;;5033939;28;20197;-52
2023/04/11 06:06:10;;;;;;;11.63;8.43;;;14.30;37.70;;;;;;5032663;28;20177;-50
2023/04/11 06:08:36;;;;;;;12.33;10.00;;;14.30;37.90;;;;;;5034101;28;20700;-52
2023/04/11 06:11:02;;;;;;;10.02;8.95;;;14.30;37.90;;;;;;5034096;28;20754;-52
2023/04/11 06:13:28;;;;;;;10.43;9.03;;;14.30;38.10;;;;;;5033817;28;20185;-50
2023/04/11 06:15:54;;;;;;;12.50;9.03;;;14.30;37.90;;;;;;5034074;28;20174;-52
2023/04/11 06:18:20;;;;;;;10.20;8.17;;;14.30;38.00;;;;;;5033649;28;20201;-51
2023/04/11 06:20:47;;;;;;;11.00;8.87;;;14.30;38.00;;;;;;5033707;28;20189;-50
2023/04/11 06:23:13;;;;;;;9.50;8.27;;;14.40;38.00;;;;;;5033674;28;20478;-52
2023/04/11 06:25:39;;;;;;;9.40;8.20;;;14.40;38.10;;;;;;5033619;28;20181;-51
2023/04/11 06:28:04;;;;;;;11.20;8.50;;;14.40;38.10;;;;;;5033587;28;20888;-50
2023/04/11 06:30:30;;;;;;;13.03;8.50;;;14.40;38.20;;;;;;5033759;28;20401;-53
2023/04/11 06:32:57;;;;;;;11.87;8.80;;;14.50;38.50;;;;;;5033331;28;20173;-53
2023/04/11 06:35:25;;;;;;;8.57;7.65;;;14.50;39.00;;;;;;5033446;28;20281;-49
2023/04/11 06:37:51;;;;;;;11.45;9.05;;;14.50;38.80;;;;;;5033404;28;20178;-50
2023/04/11 06:40:20;;;;;;;13.30;9.40;;;14.50;38.70;;;;;;5033279;28;20221;-49
2023/04/11 06:42:46;;;;;;;11.10;7.85;;;14.50;38.60;;;;;;5033350;28;20415;-50
2023/04/11 06:45:12;;;;;;;10.43;7.90;;;14.50;38.70;;;;;;5033060;28;20202;-52
2023/04/11 06:47:38;;;;;;;11.98;10.77;;;14.50;38.90;;;;;;5033046;28;20486;-51
2023/04/11 06:50:04;;;;;;;14.27;10.43;;;14.50;39.40;;;;;;5031809;28;20465;-50
2023/04/11 06:52:30;;;;;;;16.80;10.13;;;14.60;39.60;;;;;;5033145;28;20462;-50
2023/04/11 06:54:56;;;;;;;12.30;9.87;;;14.50;39.40;;;;;;5033039;28;20268;-52
2023/04/11 06:57:22;;;;;;;10.57;9.47;;;14.50;40.00;;;;;;5033045;28;20178;-51
2023/04/11 06:59:47;;;;;;;12.20;9.47;;;14.40;40.20;;;;;;5032945;28;20192;-49
2023/04/11 07:02:14;;;;;;;11.03;8.60;;;14.40;40.20;;;;;;5032720;28;20181;-50
2023/04/11 07:04:40;;;;;;;8.93;6.63;;;14.30;41.60;;;;;;5032881;28;20202;-49
2023/04/11 07:07:06;;;;;;;7.32;6.53;;;14.20;43.60;;;;;;5032924;28;20182;-52
2023/04/11 07:09:32;;;;;;;11.30;6.80;;;14.10;43.70;;;;;;5032777;28;20178;-49
2023/04/11 07:11:58;;;;;;;8.70;6.17;;;14.10;44.20;;;;;;5032655;28;20404;-49
2023/04/11 07:14:24;;;;;;;8.90;6.77;;;14.10;45.20;;;;;;5032754;28;20408;-49
2023/04/11 07:16:50;;;;;;;10.13;7.07;;;14.10;45.30;;;;;;5032720;28;20780;-52
2023/04/11 07:19:15;;;;;;;6.20;5.30;;;14.10;45.00;;;;;;5032538;28;20218;-49
2023/04/11 07:21:41;;;;;;;8.13;5.50;;;14.10;46.30;;;;;;5032621;28;20173;-49
2023/04/11 07:24:09;;;;;;;9.43;5.80;;;14.00;46.30;;;;;;5032434;28;20259;-51
2023/04/11 07:26:37;;;;;;;7.90;5.85;;;13.90;46.00;;;;;;5032599;28;20412;-50
2023/04/11 07:29:03;;;;;;;7.78;5.38;;;13.90;46.60;;;;;;5032452;28;20285;-49
2023/04/11 07:31:29;;;;;;;5.93;4.80;;;14.00;46.10;;;;;;5032392;28;20197;-51
2023/04/11 07:33:55;;;;;;;8.27;4.63;;;14.10;45.30;;;;;;5032486;28;20416;-49
2023/04/11 07:36:21;;;;;;;5.43;4.63;;;14.10;46.10;;;;;;5032415;28;20236;-49
2023/04/11 07:38:47;;;;;;;6.33;4.33;;;14.20;45.40;;;;;;5032390;28;20657;-51
2023/04/11 07:41:12;;;;;;;7.20;4.07;;;14.20;45.10;;;;;;5032321;28;21091;-51
2023/04/11 07:43:39;;;;;;;5.47;4.70;;;14.30;45.00;;;;;;5031946;28;20198;-49
2023/04/11 07:46:05;;;;;;;5.25;4.75;;;14.30;44.50;;;;;;5032312;28;20205;-51
2023/04/11 07:48:31;;;;;;;6.35;4.57;;;14.40;44.20;;;;;;5032330;28;20263;-51
2023/04/11 07:50:57;;;;;;;7.67;4.60;;;14.50;44.70;;;;;;5032213;28;20174;-48
2023/04/11 07:53:23;;;;;;;10.90;4.93;;;14.50;44.50;;;;;;5031914;28;20483;-51
2023/04/11 07:55:48;;;;;;;5.07;4.37;;;14.40;44.30;;;;;;5032429;28;20174;-51
2023/04/11 07:58:14;;;;;;;5.87;4.80;;;14.50;44.40;;;;;;5032087;28;20206;-51
2023/04/11 08:00:40;;;;;;;5.50;3.90;;;14.50;44.20;;;;;;5031952;28;20178;-50
2023/04/11 08:03:10;;;;;;;7.25;4.57;;;14.40;45.60;;;;;;5031633;28;20194;-52
2023/04/11 08:05:36;;;;;;;4.45;3.35;;;14.40;45.20;;;;;;5031974;28;20174;-51
2023/04/11 08:08:03;;;;;;;5.30;4.50;;;14.30;46.00;;;;;;5032156;28;20529;-51
2023/04/11 08:10:29;;;;;;;5.57;3.92;;;14.30;45.80;;;;;;5031870;28;20582;-51
2023/04/11 08:12:57;;;;;;;7.20;5.05;;;14.40;45.20;;;;;;5031732;28;20244;-49
2023/04/11 08:15:23;;;;;;;5.47;4.30;;;14.40;44.80;;;;;;5032426;28;20190;-51
2023/04/11 08:17:50;;;;;;;6.70;3.53;;;14.50;45.10;;;;;;5036385;28;20227;-52
2023/04/11 08:20:16;;;;;;;4.80;4.07;;;14.50;45.10;;;;;;5035843;28;20217;-52
2023/04/11 08:22:45;;;;;;;5.57;3.13;;;14.40;44.70;;;;;;5036065;28;20193;-50
2023/04/11 08:25:13;;;;;;;5.68;5.05;;;14.50;44.90;;;;;;5035821;28;20227;-51
2023/04/11 08:27:39;;;;;;;5.45;4.28;;;14.50;44.90;;;;;;5035857;28;20174;-51
2023/04/11 08:30:09;;;;;;;6.97;3.75;;;14.60;44.30;;;;;;5035551;28;20221;-52
2023/04/11 08:32:35;;;;;;;4.20;3.22;;;14.70;44.30;;;;;;5035549;28;20185;-52
2023/04/11 08:35:01;;;;;;;6.87;3.63;;;14.70;44.20;;;;;;5035768;28;20248;-52
2023/04/11 08:37:27;;;;;;;5.33;3.67;;;14.70;44.00;;;;;;5035982;28;20415;-52
2023/04/11 08:39:53;;;;;;;9.30;4.03;;;14.80;43.60;;;;;;5035558;28;20209;-52
2023/04/11 08:42:31;;;;;;;5.23;3.43;;;14.80;43.40;;;;;;5035243;28;20404;-52
2023/04/11 08:45:01;;;;;;;4.53;3.55;;;14.90;43.40;;;;;;5035711;28;20204;-51
2023/04/11 08:47:27;;;;;;;5.65;4.15;;;14.90;42.90;;;;;;5035633;28;20182;-49
2023/04/11 08:49:53;;;;;;;6.27;4.10;;;15.00;43.40;;;;;;5034159;28;20212;-52
2023/04/11 08:52:20;;;;;;;4.93;3.47;;;15.00;43.00;;;;;;5035481;28;20225;-52
2023/04/11 08:54:46;;;;;;;5.18;3.00;;;15.00;43.40;;;;;;5035462;28;20185;-52
2023/04/11 08:57:32;;;;;;;6.72;3.38;;;15.00;43.30;;;;;;5035504;28;20264;-51
2023/04/11 09:00:08;;;;;;;4.40;3.40;;;15.00;42.60;;;;;;5035222;28;20728;-52
2023/04/11 09:02:34;;;;;;;5.47;3.58;;;14.90;42.70;;;;;;5035076;28;20161;-51
2023/04/11 09:05:00;;;;;;;3.93;2.83;;;14.80;43.00;;;;;;5035034;28;20208;-51
2023/04/11 09:07:25;;;;;;;3.37;3.07;;;14.70;42.60;;;;;;5035107;28;20492;-51
2023/04/11 09:09:51;;;;;;;3.50;2.37;;;14.70;42.90;;;;;;5035315;28;20190;-51
2023/04/11 09:12:26;;;;;;;5.50;2.90;;;14.60;42.40;;;;;;5034804;28;20665;-51
2023/04/11 09:14:52;;;;;;;5.45;2.75;;;14.60;43.00;;;;;;5035053;28;20169;-49
2023/04/11 09:17:18;;;;;;;4.87;2.83;;;14.40;42.60;;;;;;5034977;28;20185;-52
2023/04/11 09:19:44;;;;;;;2.77;2.47;;;14.40;42.90;;;;;;5034657;28;20213;-50
2023/04/11 09:22:10;;;;;;;4.13;2.20;;;14.50;43.20;;;;;;5034937;28;20181;-50
2023/04/11 09:24:36;;;;;;;2.93;2.33;;;14.50;43.30;;;;;;5034684;28;20979;-52
2023/04/11 09:27:12;;;;;;;5.45;2.95;;;14.50;42.80;;;;;;5034881;28;20400;-51
2023/04/11 09:29:46;;;;;;;4.78;2.58;;;14.60;42.30;;;;;;5034741;28;20777;-52
2023/04/11 09:32:28;;;;;;;3.53;2.70;;;14.70;42.30;;;;;;5034393;28;20189;-52
2023/04/11 09:35:08;;;;;;;4.32;2.45;;;14.70;42.50;;;;;;5034569;28;20185;-50
2023/04/11 09:37:57;;;;;;;2.80;1.98;;;14.80;42.70;;;;;;5034848;28;20169;-50
2023/04/11 09:40:30;;;;;;;3.90;2.25;;;14.80;42.40;;;;;;5034525;28;20201;-50
2023/04/11 09:43:01;;;;;;;6.75;2.63;;;14.90;42.90;;;;;;5034445;28;20245;-53
2023/04/11 09:45:28;;;;;;;5.30;3.00;;;15.00;42.70;;;;;;5034528;28;20280;-50
2023/04/11 09:47:56;;;;;;;3.63;2.60;;;15.20;42.20;;;;;;5034794;28;20521;-53
2023/04/11 09:50:23;;;;;;;5.68;3.10;;;15.40;42.10;;;;;;5034517;28;20537;-51
2023/04/11 09:52:51;;;;;;;4.28;2.63;;;15.40;41.30;;;;;;5034550;28;20177;-50
2023/04/11 09:55:22;;;;;;;6.00;2.60;;;15.50;42.30;;;;;;5034284;28;20217;-50
2023/04/11 09:57:50;;;;;;;5.57;2.60;;;15.60;41.30;;;;;;5034452;28;20665;-53
2023/04/11 10:00:21;;;;;;;3.78;2.45;;;15.70;41.50;;;;;;5034940;28;20692;-52
2023/04/11 10:02:49;;;;;;;5.03;2.80;;;15.80;41.00;;;;;;5034032;28;20260;-53
2023/04/11 10:05:18;;;;;;;3.70;2.83;;;15.90;41.30;;;;;;5033903;28;20297;-51
2023/04/11 10:07:45;;;;;;;7.63;2.85;;;16.20;41.50;;;;;;5034383;28;20181;-51
2023/04/11 10:10:22;;;;;;;3.08;2.38;;;16.30;41.40;;;;;;5034094;28;20185;-50
2023/04/11 10:12:48;;;;;;;4.97;3.05;;;16.50;38.90;;;;;;5033829;28;20162;-50
2023/04/11 10:15:15;;;;;;;9.15;3.20;;;16.50;38.80;;;;;;5033839;28;20182;-52
2023/04/11 10:17:41;;;;;;;5.30;3.92;;;16.50;38.80;;;;;;5034128;28;20200;-52
2023/04/11 10:20:45;;;;;;;2.93;2.30;;;16.70;39.20;;;;;;5033532;28;20709;-50
2023/04/11 10:23:12;;;;;;;7.22;3.42;;;16.70;37.30;;;;;;5033736;28;20427;-51
2023/04/11 10:26:01;;;;;;;4.88;2.60;;;16.70;37.10;;;;;;5033695;28;20185;-52
2023/04/11 10:28:38;;;;;;;4.25;2.70;;;17.00;37.30;;;;;;5023037;28;20202;-53
2023/04/11 10:31:06;;;;;;;6.45;2.92;;;17.10;37.10;;;;;;5033541;28;20527;-51
2023/04/11 10:33:33;;;;;;;4.75;3.13;;;17.40;36.50;;;;;;5033267;28;20680;-53
2023/04/11 10:36:09;;;;;;;4.63;2.95;;;17.90;36.50;;;;;;5033421;28;20253;-52
2023/04/11 10:38:47;;;;;;;4.90;2.72;;;18.20;34.70;;;;;;5033031;28;20208;-51
2023/04/11 10:41:22;;;;;;;3.80;2.40;;;18.40;33.90;;;;;;5033304;28;20211;-52
2023/04/11 10:43:48;;;;;;;7.88;3.60;;;18.60;32.40;;;;;;5033300;28;20206;-50
2023/04/11 10:46:20;;;;;;;4.70;2.35;;;18.70;33.90;;;;;;5033167;28;20181;-52
2023/04/11 10:49:00;;;;;;;3.97;2.30;;;18.90;34.10;;;;;;5033217;28;20217;-52
2023/04/11 10:51:27;;;;;;;6.55;3.17;;;19.30;34.30;;;;;;5033102;28;20166;-52
2023/04/11 10:53:58;;;;;;;4.35;2.50;;;19.40;31.70;;;;;;5032864;28;20719;-52
2023/04/11 10:56:42;;;;;;;4.53;2.63;;;19.20;30.90;;;;;;5033101;28;20669;-52
2023/04/11 10:59:30;;;;;;;5.68;2.20;;;18.90;30.70;;;;;;5033264;28;20289;-52
2023/04/11 11:01:56;;;;;;;3.58;1.60;;;18.50;31.00;;;;;;5033029;28;20201;-52
2023/04/11 11:04:36;;;;;;;5.95;1.92;;;17.90;30.70;;;;;;5033066;28;20213;-51
2023/04/11 11:07:05;;;;;;;4.38;1.58;;;17.50;32.20;;;;;;5033027;28;20169;-51
2023/04/11 11:09:32;;;;;;;3.17;1.60;;;16.90;33.30;;;;;;5032863;28;20202;-51
2023/04/11 11:12:14;;;;;;;3.20;2.08;;;16.20;34.60;;;;;;5032730;28;20166;-51
2023/04/11 11:14:42;;;;;;;4.40;2.05;;;15.50;36.50;;;;;;5033119;28;20186;-52
2023/04/11 11:17:11;;;;;;;3.20;1.77;;;15.10;37.40;;;;;;5033066;28;20173;-50
2023/04/11 11:19:41;;;;;;;3.42;1.80;;;15.00;38.80;;;;;;5032583;28;20237;-53
2023/04/11 11:22:14;;;;;;;3.35;1.13;;;15.10;39.40;;;;;;5032728;28;20533;-51
2023/04/11 11:24:40;;;;;;;2.35;1.65;;;15.10;40.10;;;;;;5032455;28;20202;-51
2023/04/11 11:27:16;;;;;;;1.87;1.30;;;15.30;39.50;;;;;;5032724;28;20170;-52
2023/04/11 11:29:42;;;;;;;5.15;2.40;;;15.60;40.20;;;;;;5032757;28;20193;-52
2023/04/11 11:32:20;;;;;;;3.13;1.80;;;15.90;40.90;;;;;;5032291;28;20637;-52
2023/04/11 11:34:46;;;;;;;4.47;1.90;;;16.40;41.00;;;;;;5032436;28;20405;-51
2023/04/11 11:37:13;;;;;;;3.50;2.20;;;16.60;40.80;;;;;;5032321;28;20641;-51
2023/04/11 11:39:39;;;;;;;6.70;2.40;;;16.80;40.30;;;;;;5032349;28;20205;-52
2023/04/11 11:42:04;;;;;;;4.13;1.60;;;16.90;39.60;;;;;;5032337;28;20185;-52
2023/04/11 11:44:31;;;;;;;2.80;1.43;;;16.70;38.60;;;;;;5032400;28;20456;-52
2023/04/11 11:47:08;;;;;;;3.72;1.50;;;16.40;37.80;;;;;;5032510;28;20258;-51
2023/04/11 11:49:47;;;;;;;3.65;1.60;;;16.00;37.40;;;;;;5031948;28;20347;-52
2023/04/11 11:52:33;;;;;;;2.03;1.75;;;15.60;38.70;;;;;;5031716;28;20288;-52
2023/04/11 11:55:04;;;;;;;3.67;1.20;;;15.30;39.00;;;;;;5032067;28;20189;-52
2023/04/11 11:57:31;;;;;;;1.83;1.42;;;15.10;39.10;;;;;;5032501;28;20167;-52
2023/04/11 11:59:59;;;;;;;2.25;1.30;;;14.90;39.30;;;;;;5031996;28;20205;-52
2023/04/11 12:02:26;;;;;;;7.53;1.13;;;14.80;39.30;;;;;;5031782;28;20858;-52
2023/04/11 12:04:59;;;;;;;3.05;1.35;;;14.70;39.90;;;;;;5031899;28;20210;-52
2023/04/11 12:07:26;;;;;;;2.63;1.67;;;14.80;40.20;;;;;;5032047;28;20176;-52
2023/04/11 12:10:05;;;;;;;2.33;1.73;;;14.80;40.10;;;;;;5031902;28;20332;-52
2023/04/11 12:12:36;;;;;;;5.50;2.40;;;14.90;40.80;;;;;;5031677;28;20174;-52
2023/04/11 12:15:20;;;;;;;1.92;1.67;;;15.10;41.70;;;;;;5031922;28;20162;-52
2023/04/11 12:17:53;;;;;;;3.35;1.85;;;15.40;42.00;;;;;;5031923;28;20217;-52
2023/04/11 12:20:26;;;;;;;3.78;2.20;;;15.80;41.80;;;;;;5031798;28;20292;-52
2023/04/11 12:22:52;;;;;;;2.10;1.80;;;16.20;41.40;;;;;;5031659;28;20189;-52
2023/04/11 12:25:18;;;;;;;6.55;2.38;;;16.50;41.60;;;;;;5031984;28;20205;-52
2023/04/11 12:27:45;;;;;;;3.87;1.70;;;16.60;39.60;;;;;;5031871;28;20192;-52
2023/04/11 12:30:13;;;;;;;3.75;2.20;;;16.80;39.70;;;;;;5032025;28;20428;-52
2023/04/11 12:32:40;;;;;;;5.97;3.60;;;17.00;37.30;;;;;;5031616;28;20178;-52
2023/04/11 12:35:06;;;;;;;3.90;2.33;;;17.30;39.80;;;;;;5031637;28;20273;-53
2023/04/11 12:37:33;;;;;;;3.50;3.05;;;17.70;38.40;;;;;;5031902;28;20174;-52
2023/04/11 12:39:59;;;;;;;3.22;1.67;;;18.10;38.10;;;;;;5031615;28;20186;-52
2023/04/11 12:42:25;;;;;;;4.07;1.65;;;18.10;35.70;;;;;;5031522;28;20243;-52
2023/04/11 12:44:51;;;;;;;2.83;2.03;;;18.20;36.20;;;;;;5031507;28;20557;-53
2023/04/11 12:47:17;;;;;;;4.20;2.20;;;18.30;35.50;;;;;;5031599;28;20167;-51